Time;durP1;ratioP1;P1;durP2;ratioP2;P2;SDS_P1;SDS_P2;PMS_P1;PMS_P2;Temp;Humidity;BMP_temperature;BMP_pressure;BME280_temperature;BME280_humidity;BME280_pressure;Samples;Min_cycle;Max_cycle;Signal;HPM_P1;HPM_P2
2022/10/19 00:01:21;;;;;;;;;;;;;;;16.39;81.74;101664.63;5035717;28;1229;-60
2022/10/19 00:03:48;;;;;;;;;;;;;;;16.39;82.04;101667.41;5035795;28;1008;-61
2022/10/19 00:06:29;;;;;;;;;;;;;;;16.38;81.96;101665.75;5035440;28;1903;-61
2022/10/19 00:08:56;;;;;;;;;;;;;;;16.38;81.09;101665.75;5035835;28;1046;-61
2022/10/19 00:11:24;;;;;;;;;;;;;;;16.38;81.54;101664.91;5035384;28;1854;-60
2022/10/19 00:13:50;;;;;;;;;;;;;;;16.38;81.41;101673.22;5035698;28;913;-61
2022/10/19 00:16:16;;;;;;;;;;;;;;;16.36;81.95;101678.19;5035226;28;826;-60
2022/10/19 00:18:42;;;;;;;;;;;;;;;16.36;81.79;101679.03;5035490;28;897;-61
2022/10/19 00:21:08;;;;;;;;;;;;;;;16.36;81.35;101675.44;5035309;28;1287;-61
2022/10/19 00:23:33;;;;;;;;;;;;;;;16.36;81.25;101678.19;5035347;28;850;-61
2022/10/19 00:25:59;;;;;;;;;;;;;;;16.35;81.54;101665.50;5035110;28;1965;-60
2022/10/19 00:28:24;;;;;;;;;;;;;;;16.34;81.67;101677.66;5035294;28;916;-60
2022/10/19 00:30:50;;;;;;;;;;;;;;;16.34;81.42;101677.66;5035268;28;1201;-61
2022/10/19 00:33:21;;;;;;;;;;;;;;;16.34;81.66;101674.91;5035281;28;1070;-61
2022/10/19 00:35:48;;;;;;;;;;;;;;;16.34;81.24;101677.66;5034953;28;869;-60
2022/10/19 00:38:13;;;;;;;;;;;;;;;16.33;81.55;101673.28;5035065;28;862;-61
2022/10/19 00:40:39;;;;;;;;;;;;;;;16.32;81.76;101661.41;5035120;28;971;-60
2022/10/19 00:43:14;;;;;;;;;;;;;;;16.32;82.20;101663.34;5034914;28;1252;-61
2022/10/19 00:45:39;;;;;;;;;;;;;;;16.31;81.76;101664.44;5034963;28;1906;-61
2022/10/19 00:48:05;;;;;;;;;;;;;;;16.31;81.26;101664.44;5034649;28;1064;-61
2022/10/19 00:50:30;;;;;;;;;;;;;;;16.30;81.28;101668.31;5034822;28;1027;-60
2022/10/19 00:52:56;;;;;;;;;;;;;;;16.30;81.67;101673.84;5034808;28;1198;-61
2022/10/19 00:55:21;;;;;;;;;;;;;;;16.30;81.42;101671.06;5034055;28;1026;-60
2022/10/19 00:57:46;;;;;;;;;;;;;;;16.28;81.56;101663.91;5034447;28;860;-61
2022/10/19 01:00:11;;;;;;;;;;;;;;;16.28;81.42;101666.66;5034707;28;945;-60
2022/10/19 01:02:37;;;;;;;;;;;;;;;16.27;81.67;101673.31;5034464;28;1221;-61
2022/10/19 01:05:03;;;;;;;;;;;;;;;16.28;81.54;101668.59;5034536;28;1905;-61
2022/10/19 01:07:28;;;;;;;;;;;;;;;16.25;81.41;101672.75;5034474;28;824;-61
2022/10/19 01:09:53;;;;;;;;;;;;;;;16.25;81.24;101667.22;5034526;28;955;-61
2022/10/19 01:12:40;;;;;;;;;;;;;;;16.25;81.31;101672.75;5034417;28;1149;-60
2022/10/19 01:15:16;;;;;;;;;;;;;;;16.26;81.53;101684.63;5034414;28;996;-60
2022/10/19 01:18:03;;;;;;;;;;;;;;;16.25;81.22;101681.03;5034258;28;1008;-60
2022/10/19 01:20:42;;;;;;;;;;;;;;;16.24;81.19;101682.19;5034432;28;885;-61
2022/10/19 01:23:26;;;;;;;;;;;;;;;16.23;81.59;101676.94;5034270;28;1292;-60
2022/10/19 01:25:54;;;;;;;;;;;;;;;16.24;81.42;101679.44;5034008;28;1962;-60
2022/10/19 01:28:22;;;;;;;;;;;;;;;16.22;81.71;101678.88;5034168;28;988;-61
2022/10/19 01:30:59;;;;;;;;;;;;;;;16.21;81.35;101674.47;5034087;28;1058;-61
2022/10/19 01:33:29;;;;;;;;;;;;;;;16.22;81.71;101678.06;5034067;28;881;-61
2022/10/19 01:36:01;;;;;;;;;;;;;;;16.21;81.02;101677.22;5033847;28;865;-61
2022/10/19 01:38:38;;;;;;;;;;;;;;;16.20;81.19;101686.63;5033980;28;1016;-61
2022/10/19 01:41:15;;;;;;;;;;;;;;;16.20;81.58;101691.31;5033876;28;1185;-61
2022/10/19 01:43:44;;;;;;;;;;;;;;;16.19;81.08;101684.97;5033844;28;909;-61
2022/10/19 01:46:17;;;;;;;;;;;;;;;16.20;81.67;101680.28;5033620;28;1897;-61
2022/10/19 01:48:46;;;;;;;;;;;;;;;16.19;81.43;101689.66;5033752;28;885;-61
2022/10/19 01:51:13;;;;;;;;;;;;;;;16.19;81.53;101684.97;5033583;28;1181;-61
2022/10/19 01:53:42;;;;;;;;;;;;;;;16.19;81.35;101687.75;5033753;28;999;-61
2022/10/19 01:56:08;;;;;;;;;;;;;;;16.19;81.11;101684.16;5033631;28;877;-61
2022/10/19 01:58:34;;;;;;;;;;;;;;;16.18;81.68;101683.31;5033687;28;858;-61
2022/10/19 02:01:02;;;;;;;;;;;;;;;16.17;81.60;101680.84;5033556;28;1330;-61
2022/10/19 02:03:28;;;;;;;;;;;;;;;16.17;81.77;101678.09;5033471;28;917;-61
2022/10/19 02:05:54;;;;;;;;;;;;;;;16.17;81.41;101681.66;5033280;28;1902;-60
2022/10/19 02:08:24;;;;;;;;;;;;;;;16.16;80.93;101670.94;5033443;28;889;-61
2022/10/19 02:10:50;;;;;;;;;;;;;;;16.16;80.94;101677.25;5032606;28;1308;-60
2022/10/19 02:13:15;;;;;;;;;;;;;;;16.16;81.44;101676.47;5033432;28;1049;-60
2022/10/19 02:15:43;;;;;;;;;;;;;;;16.15;81.44;101675.63;5033363;28;1068;-61
2022/10/19 02:18:09;;;;;;;;;;;;;;;16.15;81.60;101674.81;5033188;28;996;-61
2022/10/19 02:20:35;;;;;;;;;;;;;;;16.15;81.37;101677.56;5033288;28;1024;-61
2022/10/19 02:23:02;;;;;;;;;;;;;;;16.13;81.07;101680.63;5033264;28;1201;-61
2022/10/19 02:25:27;;;;;;;;;;;;;;;16.13;81.17;101677.03;5033205;28;1974;-61
2022/10/19 02:27:52;;;;;;;;;;;;;;;16.13;81.23;101675.09;5033002;28;1035;-61
2022/10/19 02:30:18;;;;;;;;;;;;;;;16.12;81.58;101673.44;5033180;28;995;-60
2022/10/19 02:32:44;;;;;;;;;;;;;;;16.12;80.97;101676.19;5033358;28;1204;-61
2022/10/19 02:35:10;;;;;;;;;;;;;;;16.12;81.59;101678.13;5033250;28;917;-61
2022/10/19 02:37:36;;;;;;;;;;;;;;;16.12;81.87;101680.91;5032964;28;806;-61
2022/10/19 02:40:01;;;;;;;;;;;;;;;16.11;81.55;101680.06;5033085;28;1074;-61
2022/10/19 02:42:41;;;;;;;;;;;;;;;16.11;81.53;101669.03;5033016;28;1209;-61
2022/10/19 02:45:18;;;;;;;;;;;;;;;16.11;80.90;101677.31;5033037;28;1963;-60
2022/10/19 02:47:48;;;;;;;;;;;;;;;16.11;81.64;101670.97;5033161;28;758;-61
2022/10/19 02:50:14;;;;;;;;;;;;;;;16.09;81.04;101676.78;5033026;28;829;-61
2022/10/19 02:52:39;;;;;;;;;;;;;;;16.09;81.20;101665.72;5033236;28;1280;-62
2022/10/19 02:55:05;;;;;;;;;;;;;;;16.08;81.51;101672.34;5032624;28;770;-59
2022/10/19 02:57:31;;;;;;;;;;;;;;;16.08;81.40;101674.28;5032631;28;953;-59
2022/10/19 02:59:56;;;;;;;;;;;;;;;16.08;81.38;101677.88;5033096;28;840;-59
2022/10/19 03:02:21;;;;;;;;;;;;;;;16.09;81.12;101685.06;5032898;28;1213;-60
2022/10/19 03:04:47;;;;;;;;;;;;;;;16.07;81.29;101681.78;5032812;28;1898;-59
2022/10/19 03:07:13;;;;;;;;;;;;;;;16.08;81.16;101685.34;5032617;28;817;-59
2022/10/19 03:09:39;;;;;;;;;;;;;;;16.07;80.95;101681.78;5032793;28;852;-59
2022/10/19 03:12:04;;;;;;;;;;;;;;;16.07;81.34;101686.47;5032812;28;1198;-60
2022/10/19 03:14:29;;;;;;;;;;;;;;;16.07;81.14;101686.47;5033003;28;837;-60
2022/10/19 03:16:54;;;;;;;;;;;;;;;16.05;81.32;101678.47;5032563;28;864;-59
2022/10/19 03:19:19;;;;;;;;;;;;;;;16.05;81.21;101683.16;5034332;28;865;-59
2022/10/19 03:21:45;;;;;;;;;;;;;;;16.05;81.01;101677.66;5036493;28;1283;-59
2022/10/19 03:24:10;;;;;;;;;;;;;;;16.04;81.52;101679.59;5036594;28;823;-61
2022/10/19 03:26:35;;;;;;;;;;;;;;;16.04;81.39;101685.09;5036098;28;1894;-62
2022/10/19 03:29:00;;;;;;;;;;;;;;;16.05;81.29;101685.94;5036433;28;992;-61
2022/10/19 03:31:26;;;;;;;;;;;;;;;16.04;81.38;101689.81;5036477;28;1280;-60
2022/10/19 03:33:51;;;;;;;;;;;;;;;16.03;80.95;101682.63;5036317;28;865;-60
2022/10/19 03:36:16;;;;;;;;;;;;;;;16.02;81.53;101676.28;5036046;28;884;-60
2022/10/19 03:38:42;;;;;;;;;;;;;;;16.02;81.05;101683.75;5036194;28;870;-59
2022/10/19 03:41:08;;;;;;;;;;;;;;;16.02;81.04;101684.56;5036312;28;1205;-60
2022/10/19 03:43:33;;;;;;;;;;;;;;;16.01;80.88;101679.31;5036135;28;869;-59
2022/10/19 03:45:58;;;;;;;;;;;;;;;16.01;80.96;101676.56;5035782;28;1967;-59
2022/10/19 03:48:23;;;;;;;;;;;;;;;16.01;81.01;101676.56;5036164;28;778;-59
2022/10/19 03:50:57;;;;;;;;;;;;;;;15.99;81.46;101679.59;5036053;28;992;-60
2022/10/19 03:53:22;;;;;;;;;;;;;;;16.01;81.17;101682.09;5036001;28;1063;-59
2022/10/19 03:55:47;;;;;;;;;;;;;;;16.00;80.98;101683.19;5035684;28;957;-60
2022/10/19 03:58:12;;;;;;;;;;;;;;;15.99;81.20;101684.34;5035867;28;996;-59
2022/10/19 04:00:38;;;;;;;;;;;;;;;15.98;81.04;101683.50;5035856;28;850;-60
2022/10/19 04:03:03;;;;;;;;;;;;;;;15.97;81.15;101681.84;5035732;28;1205;-59
2022/10/19 04:05:28;;;;;;;;;;;;;;;15.97;81.35;101687.38;5035674;28;1976;-59
2022/10/19 04:07:53;;;;;;;;;;;;;;;15.97;81.05;101687.38;5035406;28;995;-59
2022/10/19 04:10:18;;;;;;;;;;;;;;;15.97;81.31;101679.09;5036032;28;698;-60
2022/10/19 04:12:44;;;;;;;;;;;;;;;15.96;81.06;101688.47;5035499;28;1287;-59
2022/10/19 04:15:09;;;;;;;;;;;;;;;15.97;80.91;101681.84;5035785;28;877;-60
2022/10/19 04:17:34;;;;;;;;;;;;;;;15.96;80.97;101685.72;5035297;28;798;-60
2022/10/19 04:19:59;;;;;;;;;;;;;;;15.95;81.01;101678.53;5035469;28;877;-60
2022/10/19 04:22:24;;;;;;;;;;;;;;;15.96;80.88;101673.84;5035368;28;1203;-59
2022/10/19 04:24:49;;;;;;;;;;;;;;;15.94;81.23;101671.38;5035304;28;1963;-61
2022/10/19 04:27:15;;;;;;;;;;;;;;;15.99;81.46;101670.53;5035147;28;1027;-60
2022/10/19 04:29:40;;;;;;;;;;;;;;;16.04;81.59;101667.72;5035050;28;873;-60
2022/10/19 04:32:05;;;;;;;;;;;;;;;16.04;81.24;101667.72;5034390;28;1295;-59
2022/10/19 04:34:30;;;;;;;;;;;;;;;16.03;81.06;101672.41;5035356;28;980;-60
2022/10/19 04:36:58;;;;;;;;;;;;;;;16.02;81.58;101675.44;5034933;28;872;-59
2022/10/19 04:39:23;;;;;;;;;;;;;;;16.01;81.53;101676.56;5035418;28;873;-59
2022/10/19 04:41:48;;;;;;;;;;;;;;;15.99;81.59;101679.59;5034997;28;1296;-60
2022/10/19 04:44:14;;;;;;;;;;;;;;;15.98;81.51;101688.19;5035242;28;1055;-59
2022/10/19 04:46:39;;;;;;;;;;;;;;;15.96;81.49;101685.72;5034501;28;1964;-59
2022/10/19 04:49:05;;;;;;;;;;;;;;;15.95;81.69;101681.31;5034930;28;806;-60
2022/10/19 04:51:30;;;;;;;;;;;;;;;15.97;81.39;101689.31;5033927;28;1284;-60
2022/10/19 04:53:57;;;;;;;;;;;;;;;15.95;81.55;101695.13;5033680;28;988;-60
2022/10/19 04:56:25;;;;;;;;;;;;;;;15.95;81.34;101689.59;5034258;28;958;-60
2022/10/19 04:58:52;;;;;;;;;;;;;;;15.94;81.34;101690.69;5034687;28;952;-59
2022/10/19 05:01:19;;;;;;;;;;;;;;;15.93;81.39;101696.50;5034620;28;1221;-59
2022/10/19 05:03:44;;;;;;;;;;;;;;;15.93;81.70;101691.81;5034569;28;1015;-60
2022/10/19 05:06:10;;;;;;;;;;;;;;;15.93;81.42;101690.97;5034175;28;1963;-59
2022/10/19 05:08:36;;;;;;;;;;;;;;;15.95;81.62;101697.06;5034608;28;916;-60
2022/10/19 05:11:02;;;;;;;;;;;;;;;15.93;81.48;101685.47;5034416;28;1303;-60
2022/10/19 05:13:27;;;;;;;;;;;;;;;15.92;81.59;101692.91;5034440;28;1035;-59
2022/10/19 05:15:56;;;;;;;;;;;;;;;15.92;81.46;101687.41;5034148;28;976;-60
2022/10/19 05:18:21;;;;;;;;;;;;;;;15.92;81.67;101679.09;5034392;28;855;-59
2022/10/19 05:20:46;;;;;;;;;;;;;;;15.93;81.63;101693.75;5034280;28;968;-60
2022/10/19 05:23:12;;;;;;;;;;;;;;;15.92;81.81;101684.63;5034352;28;1216;-59
2022/10/19 05:25:37;;;;;;;;;;;;;;;15.92;81.69;101687.41;5034105;28;1965;-61
2022/10/19 05:28:02;;;;;;;;;;;;;;;15.93;81.92;101685.47;5033003;28;1019;-60
2022/10/19 05:30:27;;;;;;;;;;;;;;;15.91;81.97;101691.25;5033669;28;1016;-60
2022/10/19 05:32:52;;;;;;;;;;;;;;;15.91;81.83;101682.97;5033756;28;1209;-59
2022/10/19 05:35:17;;;;;;;;;;;;;;;15.91;81.93;101688.50;5033814;28;987;-60
2022/10/19 05:37:43;;;;;;;;;;;;;;;15.89;82.00;101690.75;5033833;28;842;-60
2022/10/19 05:40:08;;;;;;;;;;;;;;;15.89;82.44;101696.28;5033796;28;844;-60
2022/10/19 05:42:33;;;;;;;;;;;;;;;15.88;81.89;101697.38;5033642;28;1205;-60
2022/10/19 05:44:58;;;;;;;;;;;;;;;15.86;81.78;101692.13;5033871;28;1898;-59
2022/10/19 05:47:24;;;;;;;;;;;;;;;15.87;81.76;101688.28;5033612;28;1031;-59
2022/10/19 05:49:49;;;;;;;;;;;;;;;15.87;81.76;101690.19;5033737;28;788;-60
2022/10/19 05:52:16;;;;;;;;;;;;;;;15.87;81.87;101692.97;5033555;28;1351;-60
2022/10/19 05:54:41;;;;;;;;;;;;;;;15.85;81.84;101690.50;5033812;28;921;-60
2022/10/19 05:57:06;;;;;;;;;;;;;;;15.86;81.35;101685.78;5033388;28;1054;-60
2022/10/19 05:59:32;;;;;;;;;;;;;;;15.84;81.84;101691.59;5033629;28;980;-61
2022/10/19 06:01:57;;;;;;;;;;;;;;;15.85;81.84;101689.66;5033476;28;1295;-60
2022/10/19 06:04:22;;;;;;;;;;;;;;;15.85;81.99;101681.38;5033294;28;1031;-60
2022/10/19 06:06:47;;;;;;;;;;;;;;;15.84;81.88;101679.72;5033099;28;1898;-60
2022/10/19 06:09:12;;;;;;;;;;;;;;;15.83;81.83;101673.38;5033409;28;957;-60
2022/10/19 06:11:39;;;;;;;;;;;;;;;15.83;82.01;101681.66;5033427;28;1211;-59
2022/10/19 06:14:10;;;;;;;;;;;;;;;15.84;81.75;101676.97;5033394;28;818;-60
2022/10/19 06:16:35;;;;;;;;;;;;;;;15.84;82.00;101676.97;5033181;28;953;-60
2022/10/19 06:19:01;;;;;;;;;;;;;;;15.83;81.69;101672.56;5033312;28;880;-59
2022/10/19 06:21:27;;;;;;;;;;;;;;;15.84;82.04;101671.44;5033357;28;1233;-59
2022/10/19 06:23:53;;;;;;;;;;;;;;;15.84;81.68;101676.97;5033343;28;861;-59
2022/10/19 06:26:19;;;;;;;;;;;;;;;15.82;81.93;101673.69;5033086;28;1898;-59
2022/10/19 06:28:44;;;;;;;;;;;;;;;15.82;81.83;101676.44;5033263;28;866;-60
2022/10/19 06:31:11;;;;;;;;;;;;;;;15.82;82.06;101682.75;5033138;28;1332;-59
2022/10/19 06:33:37;;;;;;;;;;;;;;;15.82;81.94;101684.72;5033220;28;810;-60
2022/10/19 06:36:10;;;;;;;;;;;;;;;15.81;81.94;101688.59;5032811;28;1008;-60
2022/10/19 06:38:35;;;;;;;;;;;;;;;15.82;82.08;101688.28;5033228;28;1011;-59
2022/10/19 06:41:00;;;;;;;;;;;;;;;15.81;81.69;101692.19;5033146;28;1209;-59
2022/10/19 06:43:25;;;;;;;;;;;;;;;15.82;82.03;101684.72;5033086;28;928;-60
2022/10/19 06:45:50;;;;;;;;;;;;;;;15.82;81.52;101690.25;5032843;28;1897;-59
2022/10/19 06:48:15;;;;;;;;;;;;;;;15.81;82.21;101694.94;5033067;28;731;-59
2022/10/19 06:50:41;;;;;;;;;;;;;;;15.81;81.99;101694.13;5033090;28;976;-59
2022/10/19 06:53:06;;;;;;;;;;;;;;;15.81;81.72;101694.13;5032836;28;1392;-60
2022/10/19 06:55:31;;;;;;;;;;;;;;;15.80;81.95;101698.81;5036556;28;881;-60
2022/10/19 06:57:57;;;;;;;;;;;;;;;15.80;82.30;101696.06;5036765;28;976;-59
2022/10/19 07:00:22;;;;;;;;;;;;;;;15.81;81.64;101694.94;5037008;28;810;-60
2022/10/19 07:02:47;;;;;;;;;;;;;;;15.81;81.64;101699.66;5036708;28;1198;-60
2022/10/19 07:05:12;;;;;;;;;;;;;;;15.80;81.85;101698.81;5036894;28;1967;-60
2022/10/19 07:07:38;;;;;;;;;;;;;;;15.80;81.98;101703.50;5036574;28;976;-59
2022/10/19 07:10:03;;;;;;;;;;;;;;;15.80;81.72;101709.03;5036772;28;802;-59
2022/10/19 07:12:28;;;;;;;;;;;;;;;15.80;81.55;101709.03;5036728;28;1274;-59
2022/10/19 07:14:54;;;;;;;;;;;;;;;15.79;81.83;101704.63;5036768;28;1067;-59
2022/10/19 07:17:19;;;;;;;;;;;;;;;15.78;81.86;101712.06;5036415;28;854;-59
2022/10/19 07:19:44;;;;;;;;;;;;;;;15.79;81.79;101713.72;5036720;28;1043;-59
2022/10/19 07:22:09;;;;;;;;;;;;;;;15.79;82.05;101707.38;5036411;28;1209;-61
2022/10/19 07:24:35;;;;;;;;;;;;;;;15.79;81.78;101710.97;5036449;28;984;-59
2022/10/19 07:27:00;;;;;;;;;;;;;;;15.79;82.24;101712.91;5036110;28;1956;-61
2022/10/19 07:29:25;;;;;;;;;;;;;;;15.78;81.90;101714.00;5036474;28;1008;-59
2022/10/19 07:31:50;;;;;;;;;;;;;;;15.78;82.34;101716.78;5036365;28;1209;-60
2022/10/19 07:34:15;;;;;;;;;;;;;;;15.79;81.85;101715.66;5036365;28;1102;-60
2022/10/19 07:36:44;;;;;;;;;;;;;;;15.78;81.82;101722.28;5035040;28;1630;-60
2022/10/19 07:39:09;;;;;;;;;;;;;;;15.78;81.97;101719.53;5036105;28;868;-60
2022/10/19 07:41:35;;;;;;;;;;;;;;;15.78;82.11;101717.59;5036279;28;1213;-60
2022/10/19 07:44:00;;;;;;;;;;;;;;;15.77;81.69;101710.41;5036213;28;1036;-60
2022/10/19 07:46:27;;;;;;;;;;;;;;;15.78;82.04;101717.59;5035781;28;1914;-60
2022/10/19 07:48:53;;;;;;;;;;;;;;;15.78;82.02;101722.28;5036330;28;864;-60
2022/10/19 07:51:19;;;;;;;;;;;;;;;15.78;82.24;101717.59;5035763;28;1209;-60
2022/10/19 07:53:44;;;;;;;;;;;;;;;15.78;82.10;101720.34;5036113;28;870;-61
2022/10/19 07:56:14;;;;;;;;;;;;;;;15.77;81.82;101709.59;5035788;28;1100;-60
2022/10/19 07:58:40;;;;;;;;;;;;;;;15.78;81.89;101717.59;5035968;28;786;-59
2022/10/19 08:01:06;;;;;;;;;;;;;;;15.78;81.95;101717.59;5035697;28;1296;-60
2022/10/19 08:03:32;;;;;;;;;;;;;;;15.77;81.84;101713.19;5035829;28;833;-60
2022/10/19 08:06:02;;;;;;;;;;;;;;;15.78;82.00;101714.84;5035256;28;1967;-60
2022/10/19 08:08:27;;;;;;;;;;;;;;;15.77;82.11;101713.19;5035724;28;1579;-60
2022/10/19 08:10:53;;;;;;;;;;;;;;;15.78;81.80;101723.13;5035429;28;1299;-59
2022/10/19 08:13:18;;;;;;;;;;;;;;;15.77;82.16;101724.22;5035669;28;806;-59
2022/10/19 08:15:43;;;;;;;;;;;;;;;15.78;82.06;101719.53;5035416;28;1000;-60
2022/10/19 08:18:08;;;;;;;;;;;;;;;15.78;81.82;101725.06;5035625;28;889;-60
2022/10/19 08:20:34;;;;;;;;;;;;;;;15.77;81.88;101718.69;5035462;28;797;-60
2022/10/19 08:23:00;;;;;;;;;;;;;;;15.79;81.94;101715.66;5035615;28;1175;-59
2022/10/19 08:25:26;;;;;;;;;;;;;;;15.79;82.33;101718.41;5035388;28;1964;-60
2022/10/19 08:27:51;;;;;;;;;;;;;;;15.78;81.86;101717.59;5035156;28;706;-59
2022/10/19 08:30:16;;;;;;;;;;;;;;;15.77;82.22;101721.47;5035276;28;939;-59
2022/10/19 08:32:41;;;;;;;;;;;;;;;15.79;81.96;101724.78;5035283;28;1284;-60
2022/10/19 08:35:07;;;;;;;;;;;;;;;15.80;82.20;101718.16;5035244;28;841;-59
2022/10/19 08:37:32;;;;;;;;;;;;;;;15.79;81.84;101715.66;5035074;28;956;-60
2022/10/19 08:39:57;;;;;;;;;;;;;;;15.78;82.57;101717.59;5035249;28;968;-59
2022/10/19 08:42:27;;;;;;;;;;;;;;;15.79;82.26;101708.22;5035086;28;1264;-60
2022/10/19 08:45:09;;;;;;;;;;;;;;;15.80;81.68;101714.56;5035066;28;829;-59
2022/10/19 08:47:37;;;;;;;;;;;;;;;15.79;81.97;101713.72;5034802;28;983;-59
2022/10/19 08:50:09;;;;;;;;;;;;;;;15.80;81.91;101718.16;5034690;28;960;-59
2022/10/19 08:52:34;;;;;;;;;;;;;;;15.80;82.12;101714.56;5035125;28;1228;-61
2022/10/19 08:55:12;;;;;;;;;;;;;;;15.79;82.01;101708.22;5034905;28;972;-63
2022/10/19 08:58:07;;;;;;;;;;;;;;;15.80;82.12;101715.38;5034670;28;932;-62
2022/10/19 09:00:38;;;;;;;;;;;;;;;15.80;81.94;101709.88;5021512;28;1331;-60
2022/10/19 09:03:12;;;;;;;;;;;;;;;15.80;82.00;101714.56;5033447;28;1216;-63
2022/10/19 09:05:59;;;;;;;;;;;;;;;15.80;82.20;101709.88;5034488;28;1894;-63
2022/10/19 09:08:24;;;;;;;;;;;;;;;15.81;82.57;101703.22;5034611;28;842;-63
2022/10/19 09:10:50;;;;;;;;;;;;;;;15.81;81.89;101700.47;5034572;28;929;-63
2022/10/19 09:13:30;;;;;;;;;;;;;;;15.81;82.28;101703.22;5034420;28;1246;-62
2022/10/19 09:15:55;;;;;;;;;;;;;;;15.82;82.02;101693.00;5034192;28;782;-63
2022/10/19 09:18:26;;;;;;;;;;;;;;;15.81;82.05;101691.38;5033786;28;992;-62
2022/10/19 09:20:56;;;;;;;;;;;;;;;15.80;82.17;101693.28;5034259;28;1252;-62
2022/10/19 09:23:27;;;;;;;;;;;;;;;15.82;81.82;101691.03;5034657;28;854;-63
2022/10/19 09:25:52;;;;;;;;;;;;;;;15.82;82.02;101690.25;5034105;28;1897;-63
2022/10/19 09:28:21;;;;;;;;;;;;;;;15.82;82.26;101691.03;5034214;28;802;-62
2022/10/19 09:30:47;;;;;;;;;;;;;;;15.82;81.63;101690.25;5034161;28;893;-62
2022/10/19 09:33:23;;;;;;;;;;;;;;;15.83;82.34;101686.34;5034059;28;1252;-62
2022/10/19 09:35:49;;;;;;;;;;;;;;;15.83;81.87;101687.19;5033894;28;1051;-62
2022/10/19 09:38:15;;;;;;;;;;;;;;;15.83;81.91;101681.66;5034001;28;972;-63
2022/10/19 09:40:41;;;;;;;;;;;;;;;15.83;81.83;101689.94;5034041;28;783;-63
2022/10/19 09:43:19;;;;;;;;;;;;;;;15.83;82.11;101687.19;5033853;28;1178;-63
2022/10/19 09:45:53;;;;;;;;;;;;;;;15.83;81.76;101694.63;5033698;28;1949;-62
2022/10/19 09:48:35;;;;;;;;;;;;;;;15.84;82.02;101688.84;5033795;28;960;-63
2022/10/19 09:51:01;;;;;;;;;;;;;;;15.85;81.78;101697.94;5033681;28;1265;-62
2022/10/19 09:53:27;;;;;;;;;;;;;;;15.84;81.85;101699.88;5033784;28;896;-62
2022/10/19 09:56:06;;;;;;;;;;;;;;;15.84;82.29;101688.84;5033454;28;1035;-62
2022/10/19 09:58:31;;;;;;;;;;;;;;;15.84;82.12;101693.53;5033811;28;857;-63
2022/10/19 10:00:57;;;;;;;;;;;;;;;15.85;81.92;101695.19;5033697;28;1193;-63
2022/10/19 10:03:28;;;;;;;;;;;;;;;15.85;82.01;101695.19;5033506;28;968;-62
2022/10/19 10:05:58;;;;;;;;;;;;;;;15.85;81.89;101695.19;5033276;28;1957;-62
2022/10/19 10:08:25;;;;;;;;;;;;;;;15.84;82.01;101686.06;5033515;28;810;-63
2022/10/19 10:11:09;;;;;;;;;;;;;;;15.85;82.00;101681.38;5033531;28;864;-63
2022/10/19 10:13:35;;;;;;;;;;;;;;;15.84;81.94;101675.03;5033463;28;884;-63
2022/10/19 10:16:02;;;;;;;;;;;;;;;15.85;81.83;101684.97;5032931;28;935;-62
2022/10/19 10:18:28;;;;;;;;;;;;;;;15.86;81.81;101692.13;5032990;28;937;-62
2022/10/19 10:20:56;;;;;;;;;;;;;;;15.86;81.92;101692.13;5031696;28;1173;-63
2022/10/19 10:23:25;;;;;;;;;;;;;;;15.87;82.06;101693.78;5031874;28;980;-63
2022/10/19 10:25:53;;;;;;;;;;;;;;;15.87;82.15;101701.25;5032967;28;1898;-60
2022/10/19 10:28:20;;;;;;;;;;;;;;;15.87;82.37;101698.50;5033307;28;786;-62
2022/10/19 10:30:46;;;;;;;;;;;;;;;15.88;82.00;101703.72;5033252;28;988;-63
2022/10/19 10:33:15;;;;;;;;;;;;;;;15.88;81.87;101700.97;5033060;28;1158;-63
2022/10/19 10:35:46;;;;;;;;;;;;;;;15.89;81.85;101696.28;5033167;28;1039;-62
2022/10/19 10:38:20;;;;;;;;;;;;;;;15.88;82.05;101692.69;5033228;28;905;-62
2022/10/19 10:40:50;;;;;;;;;;;;;;;15.89;82.02;101680.53;5033277;28;802;-62
2022/10/19 10:43:17;;;;;;;;;;;;;;;15.91;81.97;101690.47;5033100;28;1209;-62
2022/10/19 10:45:47;;;;;;;;;;;;;;;15.91;82.23;101682.97;5032760;28;1964;-61
2022/10/19 10:48:35;;;;;;;;;;;;;;;15.89;81.89;101677.78;5033070;28;1092;-63
2022/10/19 10:51:01;;;;;;;;;;;;;;;15.91;81.96;101676.66;5024659;28;1390;-62
2022/10/19 10:53:35;;;;;;;;;;;;;;;15.91;82.00;101682.97;5032962;28;988;-63
2022/10/19 10:56:01;;;;;;;;;;;;;;;15.92;82.00;101678.28;5032742;28;861;-61
2022/10/19 10:58:30;;;;;;;;;;;;;;;15.92;82.07;101673.59;5032885;28;874;-62
2022/10/19 11:00:56;;;;;;;;;;;;;;;15.91;82.20;101671.94;5032891;28;1200;-63
2022/10/19 11:03:27;;;;;;;;;;;;;;;15.93;82.11;101678.00;5032822;28;960;-62
2022/10/19 11:05:57;;;;;;;;;;;;;;;15.93;82.00;101675.25;5032750;28;1967;-63
2022/10/19 11:08:29;;;;;;;;;;;;;;;15.94;81.77;101676.06;5032896;28;885;-62
2022/10/19 11:10:59;;;;;;;;;;;;;;;15.92;82.16;101668.06;5032799;28;1326;-63
2022/10/19 11:13:27;;;;;;;;;;;;;;;15.93;81.69;101666.97;5032759;28;980;-62
2022/10/19 11:15:54;;;;;;;;;;;;;;;15.92;81.95;101659.78;5032617;28;869;-63
2022/10/19 11:18:25;;;;;;;;;;;;;;;15.92;81.78;101651.50;5032744;28;853;-60
2022/10/19 11:20:59;;;;;;;;;;;;;;;15.93;81.73;101646.81;5032639;28;849;-63
2022/10/19 11:23:30;;;;;;;;;;;;;;;15.93;81.63;101652.31;5032658;28;1007;-62
2022/10/19 11:26:19;;;;;;;;;;;;;;;15.92;82.10;101647.91;5031227;28;1898;-62
2022/10/19 11:29:05;;;;;;;;;;;;;;;15.93;82.14;101646.81;5024450;28;1374;-63
2022/10/19 11:31:36;;;;;;;;;;;;;;;15.93;82.17;101635.75;5032450;28;1181;-62
2022/10/19 11:34:18;;;;;;;;;;;;;;;15.94;81.85;101631.88;5032739;28;1000;-62
2022/10/19 11:36:49;;;;;;;;;;;;;;;15.93;81.89;101631.06;5032417;28;996;-63
2022/10/19 11:39:23;;;;;;;;;;;;;;;15.95;81.58;101623.31;5032588;28;1734;-62
2022/10/19 11:41:57;;;;;;;;;;;;;;;15.96;81.63;101611.16;5036193;28;1289;-63
2022/10/19 11:44:31;;;;;;;;;;;;;;;15.97;81.90;101615.56;5036242;28;988;-62
2022/10/19 11:47:05;;;;;;;;;;;;;;;15.98;81.79;101613.63;5035823;28;1894;-62
2022/10/19 11:49:38;;;;;;;;;;;;;;;15.98;81.73;101610.88;5036084;28;810;-62
2022/10/19 11:52:14;;;;;;;;;;;;;;;15.97;81.79;101604.53;5035833;28;1379;-62
2022/10/19 11:54:52;;;;;;;;;;;;;;;15.98;82.09;101611.72;5035959;28;933;-63
2022/10/19 11:57:23;;;;;;;;;;;;;;;15.99;81.83;101605.03;5035741;28;1011;-62
2022/10/19 11:59:50;;;;;;;;;;;;;;;15.99;81.72;101602.28;5035874;28;944;-62
2022/10/19 12:02:16;;;;;;;;;;;;;;;16.01;81.97;101593.72;5035667;28;1189;-63
2022/10/19 12:04:47;;;;;;;;;;;;;;;16.03;81.76;101591.50;5035687;28;1080;-62
2022/10/19 12:07:21;;;;;;;;;;;;;;;16.02;81.63;101596.19;5035605;28;1902;-63
2022/10/19 12:09:52;;;;;;;;;;;;;;;16.02;81.61;101598.13;5035763;28;959;-60
2022/10/19 12:12:24;;;;;;;;;;;;;;;16.02;81.56;101587.91;5035721;28;1189;-62
2022/10/19 12:14:56;;;;;;;;;;;;;;;16.05;81.58;101583.75;5035554;28;875;-62
2022/10/19 12:17:29;;;;;;;;;;;;;;;16.03;81.52;101578.50;5035413;28;877;-62
2022/10/19 12:19:57;;;;;;;;;;;;;;;16.04;81.48;101576.56;5035542;28;976;-62
2022/10/19 12:22:23;;;;;;;;;;;;;;;16.04;81.91;101579.34;5035352;28;1185;-63
2022/10/19 12:24:49;;;;;;;;;;;;;;;16.04;81.47;101571.03;5035401;28;936;-63
2022/10/19 12:27:16;;;;;;;;;;;;;;;16.04;81.66;101573.81;5035095;28;1894;-63
2022/10/19 12:29:43;;;;;;;;;;;;;;;16.03;81.50;101559.19;5035212;28;806;-60
2022/10/19 12:32:10;;;;;;;;;;;;;;;16.04;81.59;101571.03;5035282;28;1292;-63
2022/10/19 12:34:59;;;;;;;;;;;;;;;16.03;81.50;101556.41;5035287;28;851;-62
2022/10/19 12:37:38;;;;;;;;;;;;;;;16.04;81.50;101554.47;5026753;28;1090;-62
2022/10/19 12:40:09;;;;;;;;;;;;;;;16.04;81.79;101548.94;5033779;28;1333;-63
2022/10/19 12:42:53;;;;;;;;;;;;;;;16.03;81.23;101542.59;5034963;28;1181;-62
2022/10/19 12:45:18;;;;;;;;;;;;;;;16.05;81.60;101542.31;5035076;28;1971;-62
2022/10/19 12:48:03;;;;;;;;;;;;;;;16.06;81.29;101547.56;5034769;28;837;-63
2022/10/19 12:50:46;;;;;;;;;;;;;;;16.09;81.59;101548.88;5034898;28;1690;-62
2022/10/19 12:53:22;;;;;;;;;;;;;;;16.11;81.32;101546.66;5034029;28;1253;-60
2022/10/19 12:55:56;;;;;;;;;;;;;;;16.13;81.61;101538.91;5034681;28;806;-63
2022/10/19 12:58:23;;;;;;;;;;;;;;;16.15;81.33;101536.69;5034851;28;1047;-60